Anacostia, District of Columbia
Current Conditions -  °F | °C
As of 10:52 PM on Tuesday 21 Oct 2014 (Local Time) from KDCA Reporting Station
Light Rain Light Rain  
Wind Chill: 13°   Ceiling: 6000
Heat Index: 13°   Visibility: 5mi
Dew Point: 10°   Wind: 10mph
Humidity: 80%   Direction: 350°N
Pressure: 29.93"   Gusts: NA
Location:  38.8618°N, 77.0026°W
Report Text: KDCA 220252Z 35009KT 5SM -RA SCT043 OVC060 13/10 A2993 RMK AO2 SLP133 P0004 60008 T01330100 51013
Loading
Personal Weather Stations






























Interactive Weather Map
Tropical Storm Tracking
New forecast layout! Learn more

10-Day Weather Forecast

Advertisements
Track Severe Weather on mobile